createdAt,value
2023-02-14T00:01:15.164Z,0.42
2023-02-14T00:03:42.275Z,0.41
2023-02-14T00:06:12.940Z,0.37
2023-02-14T00:08:44.256Z,0.28
2023-02-14T00:11:13.055Z,0.30
2023-02-14T00:14:00.153Z,0.25
2023-02-14T00:16:27.320Z,0.15
2023-02-14T00:19:03.319Z,0.06
2023-02-14T00:21:32.477Z,0.03
2023-02-14T00:23:59.582Z,0.05
2023-02-14T00:26:26.661Z,0.07
2023-02-14T00:28:53.730Z,0.04
2023-02-14T00:31:20.967Z,0.17
2023-02-14T00:33:48.676Z,0.16
2023-02-14T00:36:17.716Z,0.20
2023-02-14T00:38:44.858Z,0.13
2023-02-14T00:41:19.154Z,0.17
2023-02-14T00:43:47.623Z,0.09
2023-02-14T00:46:15.772Z,0.14
2023-02-14T00:48:43.007Z,0.04
2023-02-14T00:51:11.094Z,-0.11
2023-02-14T00:53:39.015Z,-0.15
2023-02-14T00:56:07.093Z,-0.12
2023-02-14T00:58:34.308Z,-0.11
2023-02-14T01:01:01.802Z,-0.09
2023-02-14T01:03:29.541Z,-0.03
2023-02-14T01:05:57.560Z,-0.03
2023-02-14T01:08:25.265Z,-0.12
2023-02-14T01:10:52.939Z,-0.12
2023-02-14T01:13:20.333Z,-0.18
2023-02-14T01:15:50.154Z,-0.15
2023-02-14T01:18:19.249Z,-0.14
2023-02-14T01:20:48.939Z,-0.18
2023-02-14T01:23:16.026Z,-0.19
2023-02-14T01:25:43.109Z,-0.09
2023-02-14T01:28:10.176Z,-0.13
2023-02-14T01:30:37.360Z,-0.19
2023-02-14T01:33:04.484Z,-0.25
2023-02-14T01:35:37.711Z,-0.22
2023-02-14T01:38:04.803Z,-0.19
2023-02-14T01:40:31.939Z,-0.15
2023-02-14T01:42:59.028Z,-0.17
2023-02-14T01:45:26.773Z,-0.27
2023-02-14T01:47:56.483Z,-0.36
2023-02-14T01:50:33.496Z,-0.57
2023-02-14T01:53:05.992Z,-0.53
2023-02-14T01:55:41.243Z,-0.50
2023-02-14T01:58:12.451Z,-0.51
2023-02-14T02:00:59.487Z,-0.51
2023-02-14T02:03:38.661Z,-0.48
2023-02-14T02:06:17.610Z,-0.51
2023-02-14T02:08:58.014Z,-0.58
2023-02-14T02:11:26.139Z,-0.55
2023-02-14T02:13:53.251Z,-0.57
2023-02-14T02:17:02.967Z,-0.69
2023-02-14T02:20:04.112Z,-0.86
2023-02-14T02:23:08.552Z,-0.78
2023-02-14T02:25:51.733Z,-0.70
2023-02-14T02:28:56.156Z,-0.76
2023-02-14T02:31:26.279Z,-0.83
2023-02-14T02:34:11.816Z,-0.91
2023-02-14T02:36:52.214Z,-0.92
2023-02-14T02:39:49.129Z,-0.92
2023-02-14T02:42:18.920Z,-1.01
2023-02-14T02:45:05.506Z,-1.01
2023-02-14T02:47:46.839Z,-0.88
2023-02-14T02:50:38.699Z,-0.89
2023-02-14T02:53:23.521Z,-1.06
2023-02-14T02:56:28.782Z,-0.97
2023-02-14T02:59:29.218Z,-1.09
2023-02-14T03:02:06.596Z,-1.08
2023-02-14T03:04:53.520Z,-1.04
2023-02-14T03:07:37.170Z,-1.08
2023-02-14T03:10:24.176Z,-1.04
2023-02-14T03:13:16.308Z,-1.05
2023-02-14T03:16:02.106Z,-1.08
2023-02-14T03:18:57.086Z,-1.18
2023-02-14T03:21:39.592Z,-1.23
2023-02-14T03:24:32.606Z,-1.32
2023-02-14T03:27:15.006Z,-1.39
2023-02-14T03:29:51.697Z,-1.32
2023-02-14T03:32:34.383Z,-1.29
2023-02-14T03:35:12.726Z,-1.35
2023-02-14T03:37:54.195Z,-1.39
2023-02-14T03:40:27.389Z,-1.45
2023-02-14T03:43:02.133Z,-1.52
2023-02-14T03:45:34.614Z,-1.56
2023-02-14T03:48:12.802Z,-1.61
2023-02-14T03:50:43.321Z,-1.61
2023-02-14T03:53:11.949Z,-1.60
2023-02-14T03:55:55.416Z,-1.60
2023-02-14T03:58:28.435Z,-1.50
2023-02-14T04:01:02.003Z,-1.47
2023-02-14T04:03:32.295Z,-1.41
2023-02-14T04:06:00.504Z,-1.29
2023-02-14T04:08:29.306Z,-1.35
2023-02-14T04:11:00.138Z,-1.33
2023-02-14T04:13:28.045Z,-1.35
2023-02-14T04:15:55.297Z,-1.33
2023-02-14T04:18:41.376Z,-1.34
2023-02-14T04:21:08.586Z,-1.38
2023-02-14T04:23:35.781Z,-1.41
2023-02-14T04:26:04.205Z,-1.37
2023-02-14T04:28:32.269Z,-1.49
2023-02-14T04:31:05.159Z,-1.51
2023-02-14T04:33:33.394Z,-1.54
2023-02-14T04:36:00.841Z,-1.61
2023-02-14T04:38:28.095Z,-1.70
2023-02-14T04:40:55.332Z,-1.66
2023-02-14T04:43:22.420Z,-1.75
2023-02-14T04:45:49.557Z,-1.71
2023-02-14T04:48:16.616Z,-1.70
2023-02-14T04:50:43.758Z,-1.66
2023-02-14T04:53:10.920Z,-1.63
2023-02-14T04:55:38.045Z,-1.61
2023-02-14T04:58:05.816Z,-1.59
2023-02-14T05:00:33.040Z,-1.54
2023-02-14T05:03:00.135Z,-1.41
2023-02-14T05:05:27.241Z,-1.46
2023-02-14T05:07:54.347Z,-1.33
2023-02-14T05:10:21.433Z,-1.35
2023-02-14T05:12:48.513Z,-1.34
2023-02-14T05:15:15.663Z,-1.31
2023-02-14T05:17:42.762Z,-1.26
2023-02-14T05:20:10.147Z,-1.33
2023-02-14T05:22:37.221Z,-1.42
2023-02-14T05:25:04.530Z,-1.38
2023-02-14T05:27:31.662Z,-1.34
2023-02-14T05:29:58.799Z,-1.34
2023-02-14T05:32:25.890Z,-1.29
2023-02-14T05:34:52.961Z,-1.23
2023-02-14T05:37:20.029Z,-1.28
2023-02-14T05:39:47.200Z,-1.27
2023-02-14T05:42:14.459Z,-1.31
2023-02-14T05:44:41.528Z,-1.46
2023-02-14T05:47:08.579Z,-1.54
2023-02-14T05:49:36.026Z,-1.58
2023-02-14T05:52:03.184Z,-1.54
2023-02-14T05:54:30.317Z,-1.42
2023-02-14T05:56:57.567Z,-1.38
2023-02-14T05:59:24.612Z,-1.39
2023-02-14T06:01:51.706Z,-1.36
2023-02-14T06:04:18.789Z,-1.40
2023-02-14T06:06:45.884Z,-1.45
2023-02-14T06:09:13.551Z,-1.45
2023-02-14T06:11:40.747Z,-1.36
2023-02-14T06:14:07.866Z,-1.50
2023-02-14T06:16:35.082Z,-1.51
2023-02-14T06:19:02.226Z,-1.51
2023-02-14T06:21:29.354Z,-1.48
2023-02-14T06:23:56.517Z,-1.43
2023-02-14T06:26:27.793Z,-1.44
2023-02-14T06:28:56.323Z,-1.38
2023-02-14T06:31:24.513Z,-1.33
2023-02-14T06:33:52.962Z,-1.27
2023-02-14T06:36:20.324Z,-1.30
2023-02-14T06:38:48.756Z,-1.18
2023-02-14T06:41:17.162Z,-1.10
2023-02-14T06:43:45.650Z,-1.01
2023-02-14T06:46:12.889Z,-0.94
2023-02-14T06:48:40.116Z,-0.90
2023-02-14T06:51:07.444Z,-0.79
2023-02-14T06:53:34.899Z,-0.87
2023-02-14T06:56:02.397Z,-0.92
2023-02-14T06:58:29.497Z,-0.89
2023-02-14T07:00:57.517Z,-0.79
2023-02-14T07:03:28.650Z,-0.73
2023-02-14T07:05:57.849Z,-0.62
2023-02-14T07:08:26.328Z,-0.39
2023-02-14T07:10:58.239Z,-0.37
2023-02-14T07:13:25.867Z,-0.30
2023-02-14T07:15:53.030Z,-0.29
2023-02-14T07:18:20.109Z,-0.18
2023-02-14T07:20:47.305Z,-0.09
2023-02-14T07:23:14.385Z,-0.09
2023-02-14T07:25:41.475Z,0.10
2023-02-14T07:28:08.564Z,0.29
2023-02-14T07:30:35.859Z,0.29
2023-02-14T07:33:03.072Z,0.48
2023-02-14T07:35:30.389Z,0.79
2023-02-14T07:37:57.584Z,0.89
2023-02-14T07:40:25.192Z,1.08
2023-02-14T07:42:54.257Z,1.10
2023-02-14T07:45:22.747Z,1.30
2023-02-14T07:47:51.776Z,1.51
2023-02-14T07:50:19.893Z,1.63
2023-02-14T07:52:47.409Z,1.94
2023-02-14T07:55:14.528Z,2.10
2023-02-14T07:57:41.744Z,2.14
2023-02-14T08:00:09.464Z,2.28
2023-02-14T08:02:39.254Z,2.46
2023-02-14T08:05:07.015Z,2.71
2023-02-14T08:07:34.101Z,2.97
2023-02-14T08:10:01.337Z,3.18
2023-02-14T08:12:46.796Z,3.40
2023-02-14T08:15:32.172Z,3.71
2023-02-14T08:17:59.232Z,3.75
2023-02-14T08:20:26.374Z,4.03
2023-02-14T08:22:53.516Z,4.30
2023-02-14T08:25:20.651Z,4.56
2023-02-14T08:27:47.760Z,4.77
2023-02-14T08:30:15.354Z,5.01
2023-02-14T08:32:42.624Z,5.20
2023-02-14T08:35:09.735Z,5.25
2023-02-14T08:37:36.845Z,5.57
2023-02-14T08:40:04.030Z,5.61
2023-02-14T08:42:31.097Z,5.79
2023-02-14T08:44:58.183Z,6.06
2023-02-14T08:47:25.356Z,6.26
2023-02-14T08:49:52.469Z,6.41
2023-02-14T08:52:19.561Z,6.63
2023-02-14T08:54:46.668Z,6.87
2023-02-14T08:57:15.464Z,6.94
2023-02-14T08:59:42.574Z,7.04
2023-02-14T09:02:13.468Z,7.15
2023-02-14T09:04:40.599Z,7.36
2023-02-14T09:07:07.944Z,7.47
2023-02-14T09:09:34.996Z,7.53
2023-02-14T09:12:07.022Z,7.61
2023-02-14T09:14:38.465Z,7.74
2023-02-14T09:17:06.620Z,7.81
2023-02-14T09:19:34.601Z,8.06
2023-02-14T09:22:03.863Z,8.12
2023-02-14T09:24:32.607Z,8.21
2023-02-14T09:27:00.033Z,8.29
2023-02-14T09:29:28.564Z,8.38
2023-02-14T09:31:58.111Z,8.48
2023-02-14T09:34:26.488Z,8.65
2023-02-14T09:37:12.393Z,8.80
2023-02-14T09:39:39.483Z,8.86
2023-02-14T09:42:21.079Z,8.96
2023-02-14T09:44:54.277Z,8.87
2023-02-14T09:47:47.660Z,9.13
2023-02-14T09:50:47.232Z,9.19
2023-02-14T09:53:35.226Z,9.40
2023-02-14T09:56:26.013Z,9.67
2023-02-14T09:59:15.749Z,9.70
2023-02-14T10:01:49.502Z,9.99
2023-02-14T10:04:32.479Z,10.26
2023-02-14T10:07:32.146Z,10.31
2023-02-14T10:10:16.635Z,10.49
2023-02-14T10:12:52.894Z,10.61
2023-02-14T10:15:34.542Z,10.64
2023-02-14T10:18:16.617Z,10.84
2023-02-14T10:20:51.564Z,10.96
2023-02-14T10:23:32.136Z,11.05
2023-02-14T10:26:18.335Z,11.13
2023-02-14T10:28:49.244Z,11.12
2023-02-14T10:31:23.721Z,11.22
2023-02-14T10:34:07.740Z,11.37
2023-02-14T10:36:53.250Z,11.50
2023-02-14T10:39:53.293Z,11.48
2023-02-14T10:42:55.282Z,11.48
2023-02-14T10:45:39.111Z,11.78
2023-02-14T10:48:28.033Z,12.00
2023-02-14T10:51:13.778Z,11.82
2023-02-14T10:53:46.977Z,12.05
2023-02-14T10:56:27.972Z,12.12
2023-02-14T10:58:57.775Z,12.06
2023-02-14T11:01:25.397Z,12.49
2023-02-14T11:03:58.502Z,12.57
2023-02-14T11:06:25.726Z,12.80
2023-02-14T11:08:52.811Z,12.74
2023-02-14T11:11:41.248Z,12.84
2023-02-14T11:14:32.924Z,12.95
2023-02-14T11:17:17.649Z,13.19
2023-02-14T11:20:20.427Z,13.16
2023-02-14T11:22:47.585Z,13.05
2023-02-14T11:25:27.020Z,13.15
2023-02-14T11:28:07.880Z,13.23
2023-02-14T11:30:46.444Z,13.51
2023-02-14T11:33:30.809Z,13.76
2023-02-14T11:35:58.418Z,13.71
2023-02-14T11:38:30.666Z,13.76
2023-02-14T11:40:59.719Z,13.79
2023-02-14T11:43:38.337Z,14.03
2023-02-14T11:46:20.472Z,14.00
2023-02-14T11:49:02.144Z,14.06
2023-02-14T11:51:35.891Z,14.07
2023-02-14T11:54:05.657Z,14.31
2023-02-14T11:56:49.841Z,14.39
2023-02-14T11:59:29.906Z,14.25
2023-02-14T12:02:01.419Z,14.44
2023-02-14T12:04:38.099Z,14.57
2023-02-14T12:07:19.433Z,14.38
2023-02-14T12:09:48.348Z,14.51
2023-02-14T12:12:23.196Z,14.74
2023-02-14T12:14:50.385Z,14.91
2023-02-14T12:17:35.588Z,15.05
2023-02-14T12:20:15.128Z,15.15
2023-02-14T12:22:58.122Z,14.89
2023-02-14T12:25:34.489Z,14.99
2023-02-14T12:28:09.869Z,14.98
2023-02-14T12:30:37.267Z,14.96
2023-02-14T12:33:18.333Z,15.25
2023-02-14T12:35:54.766Z,15.25
2023-02-14T12:38:41.905Z,15.24
2023-02-14T12:41:17.901Z,15.29
2023-02-14T12:43:52.758Z,15.24
2023-02-14T12:46:38.121Z,15.19
2023-02-14T12:49:26.209Z,15.20
2023-02-14T12:52:34.879Z,15.12
2023-02-14T12:55:24.431Z,15.59
2023-02-14T12:57:56.516Z,15.77
2023-02-14T13:00:32.415Z,15.66
2023-02-14T13:03:29.177Z,15.69
2023-02-14T13:06:08.595Z,15.64
2023-02-14T13:08:51.648Z,15.52
2023-02-14T13:11:41.440Z,15.55
2023-02-14T13:14:22.492Z,15.51
2023-02-14T13:16:57.241Z,15.74
2023-02-14T13:19:40.206Z,15.91
2023-02-14T13:22:13.353Z,15.84
2023-02-14T13:24:48.221Z,15.82
2023-02-14T13:27:37.475Z,15.95
2023-02-14T13:30:32.284Z,15.78
2023-02-14T13:33:07.651Z,15.83
2023-02-14T13:35:35.738Z,15.89
2023-02-14T13:38:08.413Z,16.18
2023-02-14T13:40:35.962Z,15.93
2023-02-14T13:43:03.514Z,15.99
2023-02-14T13:45:34.866Z,15.93
2023-02-14T13:48:20.272Z,15.74
2023-02-14T13:51:01.602Z,15.67
2023-02-14T13:53:37.811Z,15.96
2023-02-14T13:56:32.440Z,16.01
2023-02-14T13:59:05.802Z,15.78
2023-02-14T14:01:50.143Z,15.81
2023-02-14T14:04:26.721Z,15.84
2023-02-14T14:07:02.705Z,15.69
2023-02-14T14:09:41.968Z,15.72
2023-02-14T14:12:38.083Z,15.77
2023-02-14T14:15:05.297Z,15.68
2023-02-14T14:17:37.097Z,15.73
2023-02-14T14:20:27.532Z,15.67
2023-02-14T14:23:00.061Z,15.58
2023-02-14T14:25:37.304Z,15.43
2023-02-14T14:28:19.467Z,15.73
2023-02-14T14:30:47.740Z,15.77
2023-02-14T14:33:30.019Z,15.64
2023-02-14T14:36:06.076Z,15.77
2023-02-14T14:38:45.436Z,15.60
2023-02-14T14:41:12.665Z,15.59
2023-02-14T14:43:40.681Z,15.87
2023-02-14T14:46:10.760Z,15.80
2023-02-14T14:48:37.923Z,15.69
2023-02-14T14:51:07.721Z,15.76
2023-02-14T14:53:57.722Z,16.08
2023-02-14T14:56:28.397Z,16.35
2023-02-14T14:58:55.768Z,16.60
2023-02-14T15:01:38.627Z,16.90
2023-02-14T15:04:35.400Z,17.06
2023-02-14T15:07:19.584Z,17.24
2023-02-14T15:09:47.296Z,17.49
2023-02-14T15:12:38.693Z,17.59
2023-02-14T15:15:09.275Z,17.64
2023-02-14T15:17:37.662Z,17.83
2023-02-14T15:20:10.542Z,17.80
2023-02-14T15:22:41.271Z,17.74
2023-02-14T15:25:18.280Z,17.60
2023-02-14T15:27:46.008Z,17.41
2023-02-14T15:30:19.475Z,17.12
2023-02-14T15:32:49.376Z,17.10
2023-02-14T15:35:19.355Z,16.66
2023-02-14T15:37:47.222Z,16.14
2023-02-14T15:40:19.989Z,15.94
2023-02-14T15:42:48.063Z,15.67
2023-02-14T15:45:22.716Z,15.50
2023-02-14T15:47:53.625Z,15.55
2023-02-14T15:50:27.808Z,15.39
2023-02-14T15:53:02.596Z,15.16
2023-02-14T15:55:30.466Z,15.04
2023-02-14T15:58:08.060Z,15.03
2023-02-14T16:00:35.622Z,15.02
2023-02-14T16:03:11.442Z,15.00
2023-02-14T16:05:38.562Z,14.91
2023-02-14T16:08:22.886Z,14.73
2023-02-14T16:11:05.136Z,14.57
2023-02-14T16:13:35.134Z,14.00
2023-02-14T16:16:07.339Z,13.79
2023-02-14T16:18:43.360Z,13.72
2023-02-14T16:21:15.038Z,13.56
2023-02-14T16:23:44.665Z,13.13
2023-02-14T16:26:12.146Z,12.85
2023-02-14T16:28:41.426Z,12.69
2023-02-14T16:31:15.140Z,12.50
2023-02-14T16:33:42.334Z,12.23
2023-02-14T16:36:24.653Z,11.93
2023-02-14T16:38:52.975Z,11.64
2023-02-14T16:41:23.021Z,11.41
2023-02-14T16:43:50.701Z,11.23
2023-02-14T16:46:21.575Z,11.09
2023-02-14T16:48:52.602Z,10.99
2023-02-14T16:51:23.539Z,10.85
2023-02-14T16:53:50.894Z,10.75
2023-02-14T16:56:26.843Z,10.65
2023-02-14T16:58:54.292Z,10.54
2023-02-14T17:01:21.455Z,10.37
2023-02-14T17:03:48.561Z,10.16
2023-02-14T17:06:20.160Z,9.91
2023-02-14T17:08:51.142Z,9.76
2023-02-14T17:11:18.824Z,9.65
2023-02-14T17:13:47.759Z,9.58
2023-02-14T17:16:16.908Z,9.46
2023-02-14T17:18:47.721Z,9.35
2023-02-14T17:21:16.573Z,9.26
2023-02-14T17:23:43.729Z,9.18
2023-02-14T17:26:11.221Z,9.03
2023-02-14T17:28:38.362Z,8.92
2023-02-14T17:31:06.277Z,8.86
2023-02-14T17:33:33.797Z,8.80
2023-02-14T17:36:11.531Z,8.74
2023-02-14T17:38:40.253Z,8.66
2023-02-14T17:41:22.497Z,8.64
2023-02-14T17:43:50.817Z,8.53
2023-02-14T17:46:20.768Z,8.42
2023-02-14T17:48:49.098Z,8.35
2023-02-14T17:51:17.911Z,8.30
2023-02-14T17:53:45.032Z,8.20
2023-02-14T17:56:25.753Z,8.09
2023-02-14T17:58:55.121Z,7.91
2023-02-14T18:01:25.230Z,7.91
2023-02-14T18:03:54.294Z,7.90
2023-02-14T18:06:21.648Z,7.83
2023-02-14T18:08:50.505Z,7.71
2023-02-14T18:11:19.711Z,7.62
2023-02-14T18:13:47.310Z,7.52
2023-02-14T18:16:16.896Z,7.41
2023-02-14T18:18:44.384Z,7.26
2023-02-14T18:21:14.841Z,7.20
2023-02-14T18:23:42.476Z,7.10
2023-02-14T18:26:15.066Z,7.01
2023-02-14T18:28:42.212Z,6.98
2023-02-14T18:31:14.884Z,6.84
2023-02-14T18:33:42.223Z,6.77
2023-02-14T18:36:12.341Z,6.78
2023-02-14T18:38:41.014Z,6.81
2023-02-14T18:41:11.061Z,6.78
2023-02-14T18:43:40.912Z,6.71
2023-02-14T18:46:22.239Z,6.56
2023-02-14T18:48:50.166Z,6.48
2023-02-14T18:51:32.125Z,6.33
2023-02-14T18:54:04.551Z,6.24
2023-02-14T18:56:35.690Z,6.21
2023-02-14T18:59:06.468Z,6.11
2023-02-14T19:01:39.773Z,6.09
2023-02-14T19:04:08.842Z,6.12
2023-02-14T19:06:36.144Z,6.02
2023-02-14T19:09:07.466Z,5.86
2023-02-14T19:11:34.661Z,5.78
2023-02-14T19:14:08.305Z,5.74
2023-02-14T19:16:38.399Z,5.61
2023-02-14T19:19:05.597Z,5.58
2023-02-14T19:21:34.779Z,5.51
2023-02-14T19:24:06.761Z,5.48
2023-02-14T19:26:39.737Z,5.34
2023-02-14T19:29:10.642Z,5.31
2023-02-14T19:31:41.045Z,5.35
2023-02-14T19:34:23.938Z,5.44
2023-02-14T19:36:52.739Z,5.10
2023-02-14T19:39:21.098Z,5.03
2023-02-14T19:41:49.114Z,4.95
2023-02-14T19:44:17.380Z,5.00
2023-02-14T19:46:46.261Z,5.04
2023-02-14T19:49:19.163Z,4.93
2023-02-14T19:51:48.049Z,4.83
2023-02-14T19:54:15.785Z,4.91
2023-02-14T19:56:46.074Z,4.81
2023-02-14T19:59:19.500Z,4.76
2023-02-14T20:01:51.843Z,4.78
2023-02-14T20:04:25.902Z,4.73
2023-02-14T20:06:53.534Z,4.79
2023-02-14T20:09:21.983Z,4.69
2023-02-14T20:11:50.368Z,4.74
2023-02-14T20:14:20.748Z,4.67
2023-02-14T20:16:48.954Z,4.53
2023-02-14T20:19:18.648Z,4.52
2023-02-14T20:21:48.115Z,4.47
2023-02-14T20:24:25.385Z,4.52
2023-02-14T20:26:53.107Z,4.53
2023-02-14T20:29:21.504Z,4.48
2023-02-14T20:31:50.991Z,4.40
2023-02-14T20:34:19.294Z,4.47
2023-02-14T20:36:53.063Z,4.43
2023-02-14T20:39:21.498Z,4.38
2023-02-14T20:41:50.183Z,4.36
2023-02-14T20:44:22.099Z,4.27
2023-02-14T20:46:52.274Z,4.23
2023-02-14T20:49:23.353Z,4.21
2023-02-14T20:51:51.582Z,4.20
2023-02-14T20:54:20.968Z,4.19
2023-02-14T20:56:50.536Z,4.19
2023-02-14T20:59:19.283Z,4.10
2023-02-14T21:01:46.535Z,3.99
2023-02-14T21:04:14.062Z,3.95
2023-02-14T21:06:41.215Z,3.90
2023-02-14T21:09:08.585Z,3.98
2023-02-14T21:11:35.940Z,3.90
2023-02-14T21:14:03.143Z,3.82
2023-02-14T21:16:30.575Z,3.74
2023-02-14T21:18:59.720Z,3.67
2023-02-14T21:21:33.747Z,3.62
2023-02-14T21:24:03.207Z,3.54
2023-02-14T21:26:30.934Z,3.48
2023-02-14T21:28:58.230Z,3.43
2023-02-14T21:31:25.746Z,3.35
2023-02-14T21:33:55.357Z,3.31
2023-02-14T21:36:24.567Z,3.16
2023-02-14T21:38:51.703Z,3.21
2023-02-14T21:41:21.547Z,3.29
2023-02-14T21:43:52.413Z,3.23
2023-02-14T21:46:27.068Z,3.41
2023-02-14T21:49:14.345Z,3.34
2023-02-14T21:51:42.232Z,3.32
2023-02-14T21:54:09.982Z,3.28
2023-02-14T21:56:37.969Z,3.33
2023-02-14T21:59:05.274Z,3.31
2023-02-14T22:01:34.709Z,3.19
2023-02-14T22:04:02.626Z,3.14
2023-02-14T22:06:29.803Z,3.16
2023-02-14T22:08:58.861Z,3.08
2023-02-14T22:11:28.087Z,3.19
2023-02-14T22:13:55.863Z,3.25
2023-02-14T22:16:23.738Z,3.30
2023-02-14T22:18:51.697Z,3.28
2023-02-14T22:21:22.289Z,3.18
2023-02-14T22:23:50.033Z,3.01
2023-02-14T22:26:21.495Z,2.92
2023-02-14T22:28:50.362Z,2.91
2023-02-14T22:31:18.431Z,2.92
2023-02-14T22:33:46.798Z,2.80
2023-02-14T22:36:14.031Z,2.77
2023-02-14T22:38:41.324Z,2.73
2023-02-14T22:41:16.812Z,2.65
2023-02-14T22:43:44.419Z,2.55
2023-02-14T22:46:17.205Z,2.42
2023-02-14T22:48:44.603Z,2.45
2023-02-14T22:51:27.962Z,2.40
2023-02-14T22:54:00.522Z,2.26
2023-02-14T22:56:36.909Z,2.25
2023-02-14T22:59:07.006Z,2.19
2023-02-14T23:01:35.728Z,2.17
2023-02-14T23:04:04.169Z,2.19
2023-02-14T23:06:33.268Z,2.16
2023-02-14T23:09:02.131Z,2.15
2023-02-14T23:11:31.607Z,2.12
2023-02-14T23:14:18.066Z,2.09
2023-02-14T23:17:03.874Z,2.07
2023-02-14T23:19:52.438Z,2.01
2023-02-14T23:22:28.352Z,2.01
2023-02-14T23:24:57.791Z,2.00
2023-02-14T23:27:30.740Z,1.95
2023-02-14T23:29:58.037Z,1.98
2023-02-14T23:32:25.112Z,1.94
2023-02-14T23:34:52.298Z,1.88
2023-02-14T23:37:19.827Z,1.87
2023-02-14T23:39:46.973Z,1.85
2023-02-14T23:42:15.977Z,1.83
2023-02-14T23:44:44.776Z,1.77
2023-02-14T23:47:13.125Z,1.69
2023-02-14T23:49:41.780Z,1.65
2023-02-14T23:52:11.436Z,1.57
2023-02-14T23:54:39.665Z,1.53
2023-02-14T23:57:07.358Z,1.46
2023-02-14T23:59:34.532Z,1.39
